createdAt,value
2023-02-21T00:00:19.482Z,7.9
2023-02-21T00:01:35.784Z,8.5
2023-02-21T00:02:52.089Z,7.5
2023-02-21T00:04:07.380Z,7.6
2023-02-21T00:05:23.676Z,7.6
2023-02-21T00:06:39.974Z,8.7
2023-02-21T00:07:56.282Z,7.6
2023-02-21T00:09:12.571Z,7.9
2023-02-21T00:10:28.867Z,7.1
2023-02-21T00:11:45.154Z,8.1
2023-02-21T00:13:01.459Z,7.7
2023-02-21T00:14:17.736Z,8.6
2023-02-21T00:15:34.035Z,8.2
2023-02-21T00:16:50.327Z,8.4
2023-02-21T00:18:06.631Z,7.8
2023-02-21T00:19:22.925Z,8.7
2023-02-21T00:20:38.219Z,9.4
2023-02-21T00:21:54.530Z,9.2
2023-02-21T00:23:10.815Z,9.1
2023-02-21T00:24:27.104Z,8.4
2023-02-21T00:25:43.413Z,8.5
2023-02-21T00:26:59.705Z,8.9
2023-02-21T00:28:15.995Z,8.5
2023-02-21T00:29:32.286Z,8.4
2023-02-21T00:30:48.590Z,9.3
2023-02-21T00:32:04.873Z,9
2023-02-21T00:33:21.161Z,8.8
2023-02-21T00:34:37.466Z,10
2023-02-21T00:35:53.761Z,9.4
2023-02-21T00:37:09.076Z,8.4
2023-02-21T00:39:41.656Z,8.2
2023-02-21T00:40:57.953Z,9.8
2023-02-21T00:42:14.242Z,8.9
2023-02-21T00:43:30.532Z,8.3
2023-02-21T00:44:46.831Z,8.7
2023-02-21T00:46:03.125Z,8.2
2023-02-21T00:47:19.418Z,9.4
2023-02-21T00:48:35.716Z,9.3
2023-02-21T00:49:52.016Z,10.3
2023-02-21T00:51:08.304Z,9.6
2023-02-21T00:52:24.605Z,8.4
2023-02-21T00:54:57.297Z,9.1
2023-02-21T00:56:13.590Z,9.1
2023-02-21T00:57:29.901Z,8.7
2023-02-21T00:58:46.194Z,8.6
2023-02-21T01:00:02.487Z,9.7
2023-02-21T01:01:18.774Z,9.5
2023-02-21T01:02:35.070Z,10
2023-02-21T01:03:51.358Z,9
2023-02-21T01:05:07.658Z,8.8
2023-02-21T01:06:23.000Z,9.3
2023-02-21T01:07:40.250Z,8.7
2023-02-21T01:08:56.533Z,9.2
2023-02-21T01:10:12.841Z,9.8
2023-02-21T01:11:28.144Z,9.1
2023-02-21T01:12:44.450Z,10.1
2023-02-21T01:14:00.723Z,9.1
2023-02-21T01:15:17.023Z,9.2
2023-02-21T01:16:33.316Z,9.1
2023-02-21T01:17:49.618Z,8.9
2023-02-21T01:20:22.208Z,10
2023-02-21T01:21:38.510Z,8.8
2023-02-21T01:22:54.799Z,9.3
2023-02-21T01:25:27.372Z,9
2023-02-21T01:26:43.669Z,9.9
2023-02-21T01:27:58.994Z,9.2
2023-02-21T01:29:15.279Z,9.3
2023-02-21T01:30:31.565Z,10.3
2023-02-21T01:31:47.876Z,9.4
2023-02-21T01:33:04.167Z,8.7
2023-02-21T01:34:20.465Z,9.3
2023-02-21T01:35:36.743Z,8.7
2023-02-21T01:36:53.045Z,9.1
2023-02-21T01:38:09.329Z,9.2
2023-02-21T01:39:25.623Z,8.1
2023-02-21T01:40:41.926Z,9.1
2023-02-21T01:41:58.228Z,9
2023-02-21T01:43:14.520Z,8.6
2023-02-21T01:44:29.831Z,8.4
2023-02-21T01:45:46.111Z,10
2023-02-21T01:47:02.411Z,9.3
2023-02-21T01:48:18.708Z,8.8
2023-02-21T01:49:34.993Z,9.4
2023-02-21T01:50:51.299Z,9.1
2023-02-21T01:52:07.583Z,9.1
2023-02-21T01:53:23.883Z,9.9
2023-02-21T01:54:40.180Z,9
2023-02-21T01:55:56.478Z,10.5
2023-02-21T01:57:12.755Z,9.3
2023-02-21T01:58:29.053Z,9.4
2023-02-21T02:01:01.644Z,9.2
2023-02-21T02:02:16.960Z,9.3
2023-02-21T02:03:33.260Z,8.7
2023-02-21T02:04:49.545Z,8.8
2023-02-21T02:06:05.838Z,8.3
2023-02-21T02:07:22.138Z,9.3
2023-02-21T02:08:38.432Z,8.7
2023-02-21T02:09:54.728Z,9.2
2023-02-21T02:11:11.012Z,8.7
2023-02-21T02:12:27.320Z,8.9
2023-02-21T02:13:43.608Z,9.4
2023-02-21T02:14:59.894Z,9.5
2023-02-21T02:16:16.196Z,9.5
2023-02-21T02:18:48.782Z,10.1
2023-02-21T02:20:04.080Z,9.3
2023-02-21T02:21:20.394Z,9
2023-02-21T02:22:36.000Z,8.7
2023-02-21T02:23:52.975Z,10.5
2023-02-21T02:25:09.259Z,9
2023-02-21T02:26:25.568Z,9.4
2023-02-21T02:27:41.864Z,8.8
2023-02-21T02:28:58.155Z,9.9
2023-02-21T02:30:14.438Z,10
2023-02-21T02:31:30.734Z,10.2
2023-02-21T02:34:03.324Z,8.9
2023-02-21T02:35:19.614Z,10.3
2023-02-21T02:36:34.922Z,9.7
2023-02-21T02:39:07.512Z,10.4
2023-02-21T02:40:23.964Z,8.8
2023-02-21T02:41:39.254Z,10.2
2023-02-21T02:42:55.559Z,10.1
2023-02-21T02:44:11.857Z,11
2023-02-21T02:45:28.149Z,11.4
2023-02-21T02:46:44.440Z,10.4
2023-02-21T02:48:00.740Z,9.8
2023-02-21T02:49:17.029Z,10.9
2023-02-21T02:50:33.319Z,9.9
2023-02-21T02:51:49.612Z,11
2023-02-21T02:53:05.914Z,11
2023-02-21T02:54:21.237Z,10.4
2023-02-21T02:55:36.541Z,11.7
2023-02-21T02:56:52.824Z,10.4
2023-02-21T02:58:09.125Z,10.9
2023-02-21T02:59:25.421Z,9.8
2023-02-21T03:00:41.711Z,12.4
2023-02-21T03:01:58.007Z,10.8
2023-02-21T03:03:14.306Z,11.2
2023-02-21T03:04:30.591Z,10.9
2023-02-21T03:05:46.896Z,11
2023-02-21T03:07:03.177Z,11.3
2023-02-21T03:08:19.467Z,12
2023-02-21T03:09:35.760Z,12.1
2023-02-21T03:10:52.075Z,12.2
2023-02-21T03:12:07.365Z,12.9
2023-02-21T03:13:23.665Z,12.2
2023-02-21T03:14:39.957Z,12.4
2023-02-21T03:15:56.248Z,12.4
2023-02-21T03:17:12.545Z,12.1
2023-02-21T03:18:28.849Z,12.7
2023-02-21T03:19:45.133Z,11.8
2023-02-21T03:21:01.441Z,11.9
2023-02-21T03:22:17.721Z,13.8
2023-02-21T03:23:34.012Z,13.4
2023-02-21T03:24:50.312Z,12.8
2023-02-21T03:26:06.613Z,12.9
2023-02-21T03:27:22.902Z,13.7
2023-02-21T03:28:38.219Z,13
2023-02-21T03:29:53.532Z,13.4
2023-02-21T03:31:09.817Z,12.5
2023-02-21T03:32:26.108Z,13.2
2023-02-21T03:34:58.701Z,13.1
2023-02-21T03:36:14.999Z,14.5
2023-02-21T03:37:31.281Z,13.6
2023-02-21T03:38:47.587Z,13.4
2023-02-21T03:40:03.873Z,13.6
2023-02-21T03:41:20.163Z,14.8
2023-02-21T03:42:36.460Z,13.9
2023-02-21T03:43:52.770Z,14.4
2023-02-21T03:45:09.059Z,14.6
2023-02-21T03:46:24.371Z,13.9
2023-02-21T03:47:40.649Z,14.1
2023-02-21T03:48:56.947Z,14.5
2023-02-21T03:50:13.251Z,13.9
2023-02-21T03:51:29.535Z,14.1
2023-02-21T03:52:45.839Z,15.3
2023-02-21T03:54:02.138Z,14.7
2023-02-21T03:55:18.432Z,14.8
2023-02-21T03:56:34.726Z,14.6
2023-02-21T03:57:51.007Z,15.1
2023-02-21T03:59:07.294Z,15.4
2023-02-21T04:00:23.596Z,14
2023-02-21T04:01:39.885Z,16.3
2023-02-21T04:02:55.195Z,15.9
2023-02-21T04:04:11.500Z,14.7
2023-02-21T04:05:27.795Z,16
2023-02-21T04:06:44.075Z,15
2023-02-21T04:08:00.387Z,14
2023-02-21T04:09:16.682Z,15.7
2023-02-21T04:10:32.976Z,16
2023-02-21T04:11:49.263Z,15.8
2023-02-21T04:13:05.546Z,15.2
2023-02-21T04:14:21.845Z,16.1
2023-02-21T04:15:38.148Z,15.3
2023-02-21T04:16:54.432Z,14.8
2023-02-21T04:18:10.738Z,15.5
2023-02-21T04:19:27.018Z,14.6
2023-02-21T04:20:42.346Z,16.3
2023-02-21T04:21:58.622Z,15
2023-02-21T04:23:14.916Z,14.5
2023-02-21T04:24:31.232Z,15.2
2023-02-21T04:25:47.508Z,15.2
2023-02-21T04:27:03.817Z,15.4
2023-02-21T04:28:20.000Z,15.4
2023-02-21T04:29:36.389Z,15.4
2023-02-21T04:30:52.692Z,15.8
2023-02-21T04:32:08.985Z,16
2023-02-21T04:33:25.276Z,16.8
2023-02-21T04:34:41.570Z,17.5
2023-02-21T04:35:57.861Z,17.6
2023-02-21T04:37:13.175Z,15.9
2023-02-21T04:38:29.473Z,16.1
2023-02-21T04:39:45.774Z,15.7
2023-02-21T04:41:02.065Z,18.2
2023-02-21T04:42:18.358Z,17.9
2023-02-21T04:43:34.638Z,15.7
2023-02-21T04:44:50.948Z,18.4
2023-02-21T04:46:07.225Z,18.2
2023-02-21T04:47:23.529Z,18
2023-02-21T04:48:39.825Z,16.5
2023-02-21T04:49:56.126Z,18.3
2023-02-21T04:51:12.404Z,17.7
2023-02-21T04:52:28.704Z,18.4
2023-02-21T04:53:44.025Z,18.4
2023-02-21T04:55:00.315Z,18.7
2023-02-21T04:56:16.602Z,18
2023-02-21T04:58:49.194Z,18
2023-02-21T05:00:05.495Z,18.4
2023-02-21T05:01:21.778Z,18.1
2023-02-21T05:02:38.070Z,20.1
2023-02-21T05:03:54.378Z,19.5
2023-02-21T05:05:10.663Z,19.5
2023-02-21T05:06:26.954Z,19.2
2023-02-21T05:07:43.241Z,20.4
2023-02-21T05:08:59.537Z,19.8
2023-02-21T05:10:14.852Z,19
2023-02-21T05:11:31.141Z,19.6
2023-02-21T05:12:47.441Z,18.7
2023-02-21T05:14:03.730Z,19.5
2023-02-21T05:15:20.024Z,19.2
2023-02-21T05:16:36.334Z,20.1
2023-02-21T05:17:52.621Z,19.2
2023-02-21T05:19:08.915Z,19.5
2023-02-21T05:20:25.216Z,18.1
2023-02-21T05:21:41.502Z,20.3
2023-02-21T05:22:57.795Z,17.6
2023-02-21T05:24:14.094Z,19.5
2023-02-21T05:25:30.380Z,19
2023-02-21T05:26:45.703Z,18.1
2023-02-21T05:28:01.989Z,19.5
2023-02-21T05:29:18.293Z,18.5
2023-02-21T05:30:34.571Z,19.3
2023-02-21T05:31:50.875Z,19.9
2023-02-21T05:33:07.163Z,18.9
2023-02-21T05:34:23.454Z,19.8
2023-02-21T05:35:39.765Z,20.1
2023-02-21T05:36:56.046Z,19.2
2023-02-21T05:38:12.334Z,19.6
2023-02-21T05:39:28.631Z,19.2
2023-02-21T05:40:44.929Z,20.4
2023-02-21T05:42:01.172Z,20
2023-02-21T05:44:32.724Z,20.7
2023-02-21T05:45:49.035Z,20.5
2023-02-21T05:47:05.324Z,20.4
2023-02-21T05:48:21.612Z,20
2023-02-21T05:49:37.920Z,20
2023-02-21T05:50:54.161Z,20.4
2023-02-21T05:52:10.393Z,19.6
2023-02-21T05:53:26.650Z,20.7
2023-02-21T05:54:42.887Z,21.9
2023-02-21T05:55:59.122Z,20.4
2023-02-21T05:57:15.370Z,20.9
2023-02-21T05:59:47.844Z,20.2
2023-02-21T06:01:03.107Z,21.4
2023-02-21T06:02:19.340Z,22.2
2023-02-21T06:03:35.579Z,20.6
2023-02-21T06:04:51.827Z,20.3
2023-02-21T06:07:24.302Z,21.6
2023-02-21T06:09:55.804Z,20.5
2023-02-21T06:11:11.054Z,21.3
2023-02-21T06:12:26.310Z,22.4
2023-02-21T06:13:42.568Z,19.7
2023-02-21T06:14:58.809Z,22
2023-02-21T06:16:15.032Z,23.5
2023-02-21T06:17:31.288Z,20.7
2023-02-21T06:18:47.515Z,22.3
2023-02-21T06:20:03.756Z,22.3
2023-02-21T06:21:20.003Z,23.4
2023-02-21T06:22:36.236Z,22.9
2023-02-21T06:23:52.489Z,22.5
2023-02-21T06:25:07.738Z,24
2023-02-21T06:26:23.003Z,22.8
2023-02-21T06:27:39.230Z,23.6
2023-02-21T06:28:55.479Z,22
2023-02-21T06:30:11.720Z,24.3
2023-02-21T06:31:27.960Z,23.3
2023-02-21T06:32:44.195Z,25
2023-02-21T06:34:00.443Z,22.7
2023-02-21T06:35:16.667Z,23.9
2023-02-21T06:36:32.913Z,21.8
2023-02-21T06:37:49.154Z,22.5
2023-02-21T06:39:05.392Z,22.5
2023-02-21T06:40:21.631Z,22.9
2023-02-21T06:41:37.885Z,23.1
2023-02-21T06:42:53.133Z,23.2
2023-02-21T06:44:09.368Z,21.5
2023-02-21T06:45:25.611Z,24.1
2023-02-21T06:46:41.855Z,23.2
2023-02-21T06:47:58.091Z,22.2
2023-02-21T06:49:14.326Z,23.4
2023-02-21T06:50:30.576Z,22.9
2023-02-21T06:51:46.821Z,23.6
2023-02-21T06:53:03.055Z,23.6
2023-02-21T06:54:19.292Z,24.3
2023-02-21T06:55:35.539Z,21.9
2023-02-21T06:56:51.778Z,24.4
2023-02-21T06:58:08.005Z,23.6
2023-02-21T06:59:23.276Z,23.1
2023-02-21T07:00:39.505Z,25.4
2023-02-21T07:01:55.757Z,23.5
2023-02-21T07:03:11.987Z,22.8
2023-02-21T07:04:28.234Z,24.5
2023-02-21T07:05:44.480Z,26.5
2023-02-21T07:07:00.709Z,23.9
2023-02-21T07:08:16.950Z,24.7
2023-02-21T07:09:33.188Z,25.8
2023-02-21T07:10:49.431Z,23.1
2023-02-21T07:12:05.672Z,23.9
2023-02-21T07:13:21.902Z,21.8
2023-02-21T07:15:54.400Z,23.6
2023-02-21T07:17:09.651Z,21.8
2023-02-21T07:18:25.887Z,25.1
2023-02-21T07:19:42.128Z,23.2
2023-02-21T07:20:58.370Z,24.2
2023-02-21T07:22:14.602Z,22.6
2023-02-21T07:23:30.849Z,22.2
2023-02-21T07:24:47.086Z,21.8
2023-02-21T07:26:03.317Z,22.1
2023-02-21T07:27:19.568Z,24
2023-02-21T07:28:35.809Z,23.9
2023-02-21T07:29:52.047Z,24.7
2023-02-21T07:31:08.284Z,22.4
2023-02-21T07:32:24.519Z,24.6
2023-02-21T07:33:40.899Z,23.6
2023-02-21T07:34:57.129Z,23.9
2023-02-21T07:36:13.365Z,22.7
2023-02-21T07:37:29.610Z,23.3
2023-02-21T07:38:45.855Z,24.5
2023-02-21T07:40:02.081Z,21.2
2023-02-21T07:41:18.328Z,24.3
2023-02-21T07:42:34.577Z,21.2
2023-02-21T07:43:50.814Z,22
2023-02-21T07:45:06.068Z,21.1
2023-02-21T07:46:22.321Z,22.5
2023-02-21T07:47:38.560Z,20.5
2023-02-21T07:48:54.786Z,22.2
2023-02-21T07:50:11.034Z,20.5
2023-02-21T07:51:27.262Z,20
2023-02-21T07:52:43.510Z,20.6
2023-02-21T07:53:59.742Z,18.8
2023-02-21T07:55:15.986Z,19.6
2023-02-21T07:56:32.231Z,20.6
2023-02-21T07:57:48.468Z,20.3
2023-02-21T07:59:04.718Z,21.3
2023-02-21T08:00:20.951Z,19.3
2023-02-21T08:01:36.208Z,19.8
2023-02-21T08:02:52.443Z,21
2023-02-21T08:04:08.692Z,19.2
2023-02-21T08:05:24.928Z,20.4
2023-02-21T08:06:41.172Z,19.5
2023-02-21T08:09:13.644Z,20.9
2023-02-21T08:10:29.897Z,21
2023-02-21T08:11:46.126Z,21
2023-02-21T08:13:02.358Z,19.7
2023-02-21T08:14:18.612Z,20.1
2023-02-21T08:16:51.085Z,20
2023-02-21T08:18:06.338Z,21.5
2023-02-21T08:19:22.584Z,20.5
2023-02-21T08:20:38.826Z,21.4
2023-02-21T08:21:55.073Z,20.7
2023-02-21T08:23:11.312Z,20.7
2023-02-21T08:24:27.538Z,20.4
2023-02-21T08:25:43.782Z,22.1
2023-02-21T08:27:00.024Z,19.5
2023-02-21T08:28:16.274Z,19.7
2023-02-21T08:29:32.494Z,20.9
2023-02-21T08:30:48.753Z,20.4
2023-02-21T08:32:04.982Z,19.9
2023-02-21T08:33:21.223Z,19.1
2023-02-21T08:34:37.577Z,20.3
2023-02-21T08:35:53.821Z,20.7
2023-02-21T08:37:10.063Z,19.9
2023-02-21T08:39:42.553Z,19.6
2023-02-21T08:40:58.789Z,18.8
2023-02-21T08:42:15.017Z,18.8
2023-02-21T08:43:31.271Z,21
2023-02-21T08:44:47.497Z,19.2
2023-02-21T08:47:19.995Z,21.2
2023-02-21T08:48:36.223Z,21.6
2023-02-21T08:49:52.458Z,18
2023-02-21T08:51:07.721Z,18.5
2023-02-21T08:52:23.955Z,20.1
2023-02-21T08:53:40.204Z,17.8
2023-02-21T08:54:56.445Z,20.3
2023-02-21T08:56:12.678Z,19.2
2023-02-21T08:57:28.914Z,19.2
2023-02-21T08:58:45.151Z,18.6
2023-02-21T09:00:01.394Z,19.1
2023-02-21T09:02:33.880Z,20.5
2023-02-21T09:03:49.133Z,19.9
2023-02-21T09:05:04.398Z,19
2023-02-21T09:06:20.628Z,20.7
2023-02-21T09:07:36.886Z,19.9
2023-02-21T09:08:53.111Z,17.8
2023-02-21T09:10:09.356Z,18.7
2023-02-21T09:11:25.591Z,19.5
2023-02-21T09:12:41.846Z,21.4
2023-02-21T09:13:58.076Z,19.2
2023-02-21T09:15:14.312Z,22.4
2023-02-21T09:16:30.554Z,21
2023-02-21T09:17:45.825Z,20.4
2023-02-21T09:19:01.072Z,19.9
2023-02-21T09:20:17.316Z,20.9
2023-02-21T09:21:33.546Z,20
2023-02-21T09:22:49.789Z,19.2
2023-02-21T09:24:06.027Z,17.8
2023-02-21T09:25:22.268Z,19.2
2023-02-21T09:26:38.507Z,20.8
2023-02-21T09:27:54.766Z,19
2023-02-21T09:29:11.001Z,20.4
2023-02-21T09:30:27.226Z,17.3
2023-02-21T09:31:43.486Z,19.9
2023-02-21T09:32:59.724Z,19
2023-02-21T09:34:15.957Z,18.5
2023-02-21T09:35:31.222Z,18.4
2023-02-21T09:36:47.462Z,19.3
2023-02-21T09:38:03.699Z,18.8
2023-02-21T09:39:19.928Z,18.8
2023-02-21T09:40:36.165Z,18.7
2023-02-21T09:41:52.415Z,18.6
2023-02-21T09:43:08.662Z,17.6
2023-02-21T09:44:24.889Z,18.8
2023-02-21T09:45:41.133Z,18.2
2023-02-21T09:46:57.375Z,16.8
2023-02-21T09:48:13.617Z,16.6
2023-02-21T09:49:29.848Z,18
2023-02-21T09:50:46.081Z,17.8
2023-02-21T09:52:02.322Z,18.2
2023-02-21T09:53:17.587Z,17.7
2023-02-21T09:54:33.837Z,19.8
2023-02-21T09:55:50.072Z,19.9
2023-02-21T09:57:06.304Z,16.5
2023-02-21T09:58:22.549Z,19.1
2023-02-21T09:59:38.780Z,17.2
2023-02-21T10:00:55.020Z,19.4
2023-02-21T10:02:11.263Z,18.5
2023-02-21T10:03:27.514Z,19.2
2023-02-21T10:04:43.756Z,19
2023-02-21T10:05:59.982Z,18.7
2023-02-21T10:07:16.216Z,18.5
2023-02-21T10:08:32.464Z,18
2023-02-21T10:09:47.716Z,18.5
2023-02-21T10:11:03.951Z,18.2
2023-02-21T10:12:20.192Z,17.5
2023-02-21T10:13:36.437Z,17.5
2023-02-21T10:14:52.677Z,18.2
2023-02-21T10:16:08.932Z,18.3
2023-02-21T10:17:25.163Z,18.8
2023-02-21T10:18:41.396Z,18
2023-02-21T10:19:57.636Z,17.6
2023-02-21T10:21:13.888Z,17.7
2023-02-21T10:22:30.119Z,18.2
2023-02-21T10:23:46.357Z,16.6
2023-02-21T10:25:02.602Z,17.7
2023-02-21T10:26:17.852Z,18.1
2023-02-21T10:27:34.095Z,18.5
2023-02-21T10:28:50.333Z,18
2023-02-21T10:30:06.580Z,18.6
2023-02-21T10:31:22.806Z,17.4
2023-02-21T10:32:39.061Z,17.4
2023-02-21T10:33:55.287Z,17.1
2023-02-21T10:35:11.543Z,17.4
2023-02-21T10:36:27.784Z,18
2023-02-21T10:37:44.007Z,16.3
2023-02-21T10:39:00.262Z,18.2
2023-02-21T10:40:16.486Z,17.7
2023-02-21T10:41:32.738Z,17
2023-02-21T10:42:48.981Z,18.6
2023-02-21T10:44:04.226Z,18
2023-02-21T10:45:20.465Z,17.5
2023-02-21T10:46:36.715Z,17.6
2023-02-21T10:47:52.944Z,17.7
2023-02-21T10:49:09.199Z,17.2
2023-02-21T10:50:25.424Z,18.3
2023-02-21T10:51:41.674Z,18.1
2023-02-21T10:52:57.917Z,17.6
2023-02-21T10:54:14.144Z,17.7
2023-02-21T10:56:46.630Z,18.2
2023-02-21T10:58:02.878Z,17.3
2023-02-21T10:59:19.117Z,16.9
2023-02-21T11:00:34.364Z,18.8
2023-02-21T11:01:50.597Z,17.7
2023-02-21T11:03:06.849Z,18.6
2023-02-21T11:04:23.076Z,17.7
2023-02-21T11:05:39.320Z,18
2023-02-21T11:06:55.569Z,17.1
2023-02-21T11:08:11.806Z,16.5
2023-02-21T11:09:28.048Z,17.9
2023-02-21T11:10:44.277Z,18.2
2023-02-21T11:15:49.250Z,17.2
2023-02-21T11:17:04.512Z,17.3
2023-02-21T11:18:19.755Z,18.1
2023-02-21T11:19:35.996Z,18.7
2023-02-21T11:20:52.233Z,17.9
2023-02-21T11:22:08.484Z,18.8
2023-02-21T11:23:24.727Z,17.6
2023-02-21T11:24:40.957Z,15.7
2023-02-21T11:27:13.428Z,17.3
2023-02-21T11:28:29.686Z,16.5
2023-02-21T11:29:45.923Z,17.4
2023-02-21T11:31:02.146Z,16.7
2023-02-21T11:32:18.385Z,16.4
2023-02-21T11:33:34.640Z,18.5
2023-02-21T11:34:49.896Z,17.8
2023-02-21T11:36:06.132Z,17
2023-02-21T11:37:22.368Z,16.2
2023-02-21T11:38:38.618Z,15.7
2023-02-21T11:39:54.855Z,16.9
2023-02-21T11:42:27.329Z,14.5
2023-02-21T11:43:42.593Z,16.1
2023-02-21T11:44:57.846Z,14.8
2023-02-21T11:46:14.092Z,14.8
2023-02-21T11:47:30.327Z,15.2
2023-02-21T11:48:46.572Z,14.2
2023-02-21T11:50:02.799Z,13.1
2023-02-21T11:51:19.055Z,13.3
2023-02-21T11:52:35.278Z,12.7
2023-02-21T11:53:51.532Z,14.3
2023-02-21T11:55:07.759Z,13.4
2023-02-21T11:56:24.004Z,12.6
2023-02-21T11:57:39.272Z,13.6
2023-02-21T11:58:54.527Z,12.9
2023-02-21T12:00:09.791Z,12.3
2023-02-21T12:01:26.028Z,13.2
2023-02-21T12:02:42.255Z,13.4
2023-02-21T12:03:58.507Z,13.3
2023-02-21T12:05:14.737Z,13
2023-02-21T12:06:30.995Z,12.8
2023-02-21T12:07:47.230Z,12.2
2023-02-21T12:09:03.468Z,13
2023-02-21T12:10:19.694Z,13.4
2023-02-21T12:11:35.954Z,12.2
2023-02-21T12:12:51.216Z,12.4
2023-02-21T12:14:06.471Z,13.7
2023-02-21T12:15:22.704Z,14.5
2023-02-21T12:16:38.934Z,12.9
2023-02-21T12:17:55.185Z,11.9
2023-02-21T12:19:11.417Z,12.6
2023-02-21T12:20:27.667Z,13.3
2023-02-21T12:21:43.899Z,12.5
2023-02-21T12:23:00.146Z,12.8
2023-02-21T12:24:16.380Z,12.1
2023-02-21T12:25:32.618Z,11.3
2023-02-21T12:28:05.093Z,11.9
2023-02-21T12:30:37.587Z,11.3
2023-02-21T12:31:52.840Z,12.2
2023-02-21T12:33:08.105Z,12.3
2023-02-21T12:34:24.338Z,12.9
2023-02-21T12:35:40.578Z,12.8
2023-02-21T12:36:56.808Z,14.2
2023-02-21T12:38:13.060Z,13.6
2023-02-21T12:39:29.299Z,12.9
2023-02-21T12:40:45.537Z,14.1
2023-02-21T12:42:01.775Z,13.4
2023-02-21T12:43:18.010Z,13.8
2023-02-21T12:44:34.264Z,13.7
2023-02-21T12:45:49.513Z,13.6
2023-02-21T12:47:05.746Z,14.1
2023-02-21T12:48:21.014Z,12.6
2023-02-21T12:50:53.488Z,11.6
2023-02-21T12:52:09.739Z,13.7
2023-02-21T12:53:25.982Z,14.1
2023-02-21T12:54:42.222Z,14.3
2023-02-21T12:55:58.457Z,13.5
2023-02-21T12:57:14.684Z,12.4
2023-02-21T12:58:30.923Z,13.1
2023-02-21T13:01:03.419Z,11.9
2023-02-21T13:02:18.678Z,12.2
2023-02-21T13:03:33.935Z,12.3
2023-02-21T13:04:50.176Z,11.5
2023-02-21T13:06:06.415Z,13.1
2023-02-21T13:07:22.645Z,11.8
2023-02-21T13:08:38.895Z,11.8
2023-02-21T13:09:55.120Z,11.8
2023-02-21T13:11:11.362Z,11.1
2023-02-21T13:12:27.609Z,11.2
2023-02-21T13:13:43.842Z,12.9
2023-02-21T13:15:00.097Z,12.3
2023-02-21T13:16:15.343Z,12.2
2023-02-21T13:17:30.615Z,12.3
2023-02-21T13:18:46.836Z,13
2023-02-21T13:20:03.082Z,12.4
2023-02-21T13:21:19.320Z,12.8
2023-02-21T13:22:35.567Z,13.9
2023-02-21T13:23:51.796Z,15.5
2023-02-21T13:25:08.036Z,14.3
2023-02-21T13:26:24.286Z,15
2023-02-21T13:27:40.514Z,15.1
2023-02-21T13:28:56.773Z,14.6
2023-02-21T13:30:13.010Z,13.1
2023-02-21T13:31:29.234Z,13.5
2023-02-21T13:32:45.486Z,13.6
2023-02-21T13:34:00.738Z,14.5
2023-02-21T13:35:16.988Z,13.2
2023-02-21T13:36:33.225Z,14.3
2023-02-21T13:37:49.458Z,14
2023-02-21T13:39:05.705Z,14.6
2023-02-21T13:40:21.929Z,15.5
2023-02-21T13:41:38.182Z,14.1
2023-02-21T13:42:54.428Z,15.7
2023-02-21T13:44:10.668Z,15.5
2023-02-21T13:45:26.898Z,16
2023-02-21T13:46:43.140Z,15
2023-02-21T13:47:59.389Z,15.1
2023-02-21T13:49:15.617Z,15
2023-02-21T13:50:30.872Z,14.3
2023-02-21T13:51:47.110Z,13.7
2023-02-21T13:53:03.363Z,14.2
2023-02-21T13:54:19.599Z,13.5
2023-02-21T13:55:35.835Z,13.8
2023-02-21T13:56:52.068Z,14.1
2023-02-21T13:58:08.319Z,14.5
2023-02-21T13:59:24.557Z,13.5
2023-02-21T14:00:40.793Z,13.9
2023-02-21T14:01:57.028Z,13.6
2023-02-21T14:03:13.270Z,13
2023-02-21T14:04:29.506Z,13.4
2023-02-21T14:07:01.987Z,15.1
2023-02-21T14:08:17.257Z,14.6
2023-02-21T14:09:33.494Z,15.6
2023-02-21T14:10:49.721Z,13.8
2023-02-21T14:12:05.972Z,14.1
2023-02-21T14:13:22.214Z,14.8
2023-02-21T14:14:38.451Z,14.1
2023-02-21T14:15:54.682Z,14.7
2023-02-21T14:17:10.919Z,14.5
2023-02-21T14:18:27.164Z,14.2
2023-02-21T14:19:43.412Z,14.8
2023-02-21T14:20:59.639Z,17.2
2023-02-21T14:22:15.886Z,17.1
2023-02-21T14:23:32.125Z,20.2
2023-02-21T14:24:47.384Z,15.8
2023-02-21T14:26:03.624Z,19.6
2023-02-21T14:27:19.872Z,22.4
2023-02-21T14:28:36.101Z,25.2
2023-02-21T14:29:52.340Z,20
2023-02-21T14:31:08.593Z,16.1
2023-02-21T14:32:24.828Z,16.2
2023-02-21T14:33:41.064Z,16.6
2023-02-21T14:34:57.303Z,16.7
2023-02-21T14:36:13.546Z,15
2023-02-21T14:37:29.785Z,14.3
2023-02-21T14:38:46.017Z,14.2
2023-02-21T14:40:02.266Z,13.5
2023-02-21T14:41:18.512Z,15.1
2023-02-21T14:42:33.766Z,15
2023-02-21T14:45:06.236Z,14.4
2023-02-21T14:46:22.473Z,12.8
2023-02-21T14:47:38.716Z,12.9
2023-02-21T14:48:54.950Z,13.5
2023-02-21T14:50:11.196Z,12.7
2023-02-21T14:51:27.427Z,12.8
2023-02-21T14:52:43.676Z,13.1
2023-02-21T14:53:59.925Z,14.5
2023-02-21T14:55:16.150Z,12.7
2023-02-21T14:56:32.404Z,12.8
2023-02-21T14:57:48.635Z,13.3
2023-02-21T14:59:03.891Z,12.6
2023-02-21T15:00:20.142Z,13.1
2023-02-21T15:01:36.372Z,11.8
2023-02-21T15:02:52.607Z,12.4
2023-02-21T15:04:08.853Z,13.7
2023-02-21T15:05:25.089Z,12.6
2023-02-21T15:07:57.573Z,12.3
2023-02-21T15:09:13.817Z,10.9
2023-02-21T15:10:30.045Z,12.4
2023-02-21T15:11:46.285Z,11.6
2023-02-21T15:13:02.534Z,11.5
2023-02-21T15:14:18.767Z,11.6
2023-02-21T15:15:34.037Z,11.1
2023-02-21T15:16:50.266Z,12.4
2023-02-21T15:18:06.503Z,11.6
2023-02-21T15:19:22.754Z,11.5
2023-02-21T15:20:38.978Z,11.3
2023-02-21T15:21:55.234Z,11.5
2023-02-21T15:23:11.464Z,11.3
2023-02-21T15:24:27.711Z,11.7
2023-02-21T15:25:43.959Z,11.1
2023-02-21T15:27:00.185Z,10.9
2023-02-21T15:28:16.435Z,9.8
2023-02-21T15:30:48.908Z,10.9
2023-02-21T15:32:05.156Z,10.3
2023-02-21T15:33:20.399Z,10.3
2023-02-21T15:34:36.647Z,11.2
2023-02-21T15:35:52.885Z,12.9
2023-02-21T15:37:09.126Z,10.8
2023-02-21T15:38:25.364Z,10.9
2023-02-21T15:39:41.612Z,11.8
2023-02-21T15:40:57.848Z,11.1
2023-02-21T15:42:14.088Z,11.2
2023-02-21T15:43:30.324Z,11.6
2023-02-21T15:46:02.809Z,11.1
2023-02-21T15:47:19.053Z,10.2
2023-02-21T15:48:35.283Z,11.1
2023-02-21T15:49:51.519Z,10.9
2023-02-21T15:51:06.778Z,10
2023-02-21T15:53:39.263Z,9.7
2023-02-21T15:54:54.529Z,10.2
2023-02-21T15:56:09.782Z,10
2023-02-21T15:57:26.026Z,10.2
2023-02-21T15:58:42.264Z,10.2
2023-02-21T16:01:14.736Z,10
2023-02-21T16:02:30.979Z,9.3
2023-02-21T16:03:47.210Z,9.2
2023-02-21T16:05:03.469Z,10.2
2023-02-21T16:06:19.699Z,10.3
2023-02-21T16:07:35.929Z,10.3
2023-02-21T16:08:52.183Z,10.8
2023-02-21T16:10:08.412Z,11
2023-02-21T16:11:24.656Z,10.2
2023-02-21T16:12:40.891Z,10
2023-02-21T16:13:56.157Z,10.4
2023-02-21T16:15:12.401Z,10.1
2023-02-21T16:16:27.666Z,10.4
2023-02-21T16:17:43.906Z,11.3
2023-02-21T16:19:00.145Z,12.2
2023-02-21T16:20:16.368Z,11.9
2023-02-21T16:21:32.621Z,11.4
2023-02-21T16:22:47.887Z,11
2023-02-21T16:24:03.137Z,11.2
2023-02-21T16:26:35.621Z,12.5
2023-02-21T16:27:51.845Z,11.2
2023-02-21T16:29:08.089Z,11.7
2023-02-21T16:30:24.332Z,10.8
2023-02-21T16:31:40.568Z,10.6
2023-02-21T16:32:56.827Z,10.5
2023-02-21T16:34:13.050Z,11.1
2023-02-21T16:35:29.289Z,10.7
2023-02-21T16:36:45.530Z,10.4
2023-02-21T16:39:18.004Z,9.6
2023-02-21T16:40:34.260Z,11
2023-02-21T16:41:49.509Z,9.9
2023-02-21T16:43:04.778Z,10.8
2023-02-21T16:44:21.011Z,11.7
2023-02-21T16:46:53.498Z,9.8
2023-02-21T16:48:09.743Z,10.6
2023-02-21T16:49:25.969Z,11.3
2023-02-21T16:50:42.205Z,10.3
2023-02-21T16:51:58.445Z,9.6
2023-02-21T16:54:30.929Z,9.9
2023-02-21T16:55:47.168Z,9.7
2023-02-21T16:57:03.410Z,10.6
2023-02-21T16:58:18.684Z,10.2
2023-02-21T16:59:33.932Z,10.3
2023-02-21T17:00:50.168Z,11
2023-02-21T17:02:06.402Z,11.1
2023-02-21T17:03:22.653Z,10.2
2023-02-21T17:04:38.882Z,10.5
2023-02-21T17:05:55.132Z,10.3
2023-02-21T17:07:11.425Z,11.3
2023-02-21T17:09:44.008Z,9.8
2023-02-21T17:11:00.297Z,10.2
2023-02-21T17:12:16.597Z,10.9
2023-02-21T17:13:32.906Z,10.7
2023-02-21T17:14:49.192Z,9.6
2023-02-21T17:16:05.480Z,10.5
2023-02-21T17:17:20.799Z,10.6
2023-02-21T17:18:37.077Z,11
2023-02-21T17:19:53.375Z,11.7
2023-02-21T17:21:09.673Z,12
2023-02-21T17:22:25.960Z,10.3
2023-02-21T17:24:58.557Z,12.8
2023-02-21T17:26:14.846Z,11.6
2023-02-21T17:27:31.144Z,12
2023-02-21T17:28:47.439Z,12.7
2023-02-21T17:30:03.741Z,11.5
2023-02-21T17:31:20.028Z,13.7
2023-02-21T17:32:36.313Z,18.8
2023-02-21T17:33:51.627Z,14.3
2023-02-21T17:35:07.917Z,12.7
2023-02-21T17:36:23.250Z,10.4
2023-02-21T17:37:38.548Z,10.7
2023-02-21T17:38:54.854Z,11.6
2023-02-21T17:40:11.147Z,11
2023-02-21T17:41:27.435Z,10.9
2023-02-21T17:42:43.734Z,10.4
2023-02-21T17:44:00.029Z,10.7
2023-02-21T17:45:16.306Z,10.7
2023-02-21T17:46:32.603Z,10.4
2023-02-21T17:47:48.905Z,10.8
2023-02-21T17:49:05.201Z,12.2
2023-02-21T17:50:20.517Z,11.8
2023-02-21T17:51:36.933Z,12.5
2023-02-21T17:52:53.217Z,11.6
2023-02-21T17:54:09.520Z,14
2023-02-21T17:55:25.801Z,14.3
2023-02-21T17:56:42.110Z,14.5
2023-02-21T17:57:58.405Z,15.7
2023-02-21T17:59:14.696Z,16.6
2023-02-21T18:00:30.984Z,14.5